createdAt,value
2022-10-19T00:00:15.058Z,71.28
2022-10-19T00:01:20.385Z,71.34
2022-10-19T00:02:21.951Z,71.47
2022-10-19T00:03:23.478Z,71.36
2022-10-19T00:04:24.983Z,71.26
2022-10-19T00:05:26.402Z,71.30
2022-10-19T00:06:27.906Z,71.25
2022-10-19T00:07:29.407Z,71.07
2022-10-19T00:08:30.828Z,71.02
2022-10-19T00:09:32.267Z,71.00
2022-10-19T00:10:33.752Z,70.96
2022-10-19T00:11:35.727Z,70.96
2022-10-19T00:12:37.624Z,70.91
2022-10-19T00:13:39.805Z,70.88
2022-10-19T00:14:41.505Z,70.76
2022-10-19T00:15:42.949Z,70.81
2022-10-19T00:16:44.598Z,70.72
2022-10-19T00:17:46.046Z,70.63
2022-10-19T00:18:47.476Z,70.54
2022-10-19T00:19:48.975Z,70.59
2022-10-19T00:20:50.419Z,70.56
2022-10-19T00:21:52.021Z,70.43
2022-10-19T00:22:53.469Z,70.49
2022-10-19T00:23:54.903Z,70.44
2022-10-19T00:24:56.814Z,70.33
2022-10-19T00:25:58.426Z,70.21
2022-10-19T00:26:59.899Z,70.23
2022-10-19T00:28:01.385Z,70.29
2022-10-19T00:29:03.027Z,70.04
2022-10-19T00:30:04.869Z,70.08
2022-10-19T00:31:13.670Z,70.00
2022-10-19T00:32:15.159Z,69.97
2022-10-19T00:33:21.352Z,70.02
2022-10-19T00:34:22.807Z,69.90
2022-10-19T00:35:24.463Z,69.80
2022-10-19T00:36:26.913Z,69.85
2022-10-19T00:37:28.326Z,69.85
2022-10-19T00:38:29.847Z,69.75
2022-10-19T00:39:31.297Z,69.84
2022-10-19T00:40:38.892Z,69.69
2022-10-19T00:41:40.515Z,69.71
2022-10-19T00:42:41.934Z,69.66
2022-10-19T00:43:53.674Z,69.61
2022-10-19T00:44:57.154Z,69.69
2022-10-19T00:45:58.596Z,69.57
2022-10-19T00:47:01.906Z,69.64
2022-10-19T00:48:03.498Z,69.66
2022-10-19T00:49:09.888Z,69.55
2022-10-19T00:50:13.175Z,69.54
2022-10-19T00:51:14.632Z,69.57
2022-10-19T00:52:17.254Z,69.59
2022-10-19T00:53:18.757Z,69.53
2022-10-19T00:54:20.219Z,69.54
2022-10-19T00:55:21.661Z,69.68
2022-10-19T00:56:23.118Z,69.45
2022-10-19T00:57:26.102Z,69.47
2022-10-19T00:58:27.636Z,69.39
2022-10-19T00:59:31.743Z,69.40
2022-10-19T01:00:34.523Z,69.35
2022-10-19T01:01:35.994Z,69.37
2022-10-19T01:02:37.632Z,69.44
2022-10-19T01:03:39.291Z,69.41
2022-10-19T01:04:42.143Z,69.25
2022-10-19T01:05:43.613Z,69.28
2022-10-19T01:06:45.076Z,69.39
2022-10-19T01:07:46.782Z,69.35
2022-10-19T01:08:48.242Z,69.39
2022-10-19T01:09:49.716Z,69.34
2022-10-19T01:11:11.270Z,69.35
2022-10-19T01:12:18.481Z,69.51
2022-10-19T01:13:49.343Z,69.30
2022-10-19T01:14:53.611Z,69.27
2022-10-19T01:16:00.784Z,69.34
2022-10-19T01:17:09.156Z,69.35
2022-10-19T01:18:16.446Z,69.46
2022-10-19T01:19:17.940Z,69.52
2022-10-19T01:20:19.604Z,69.64
2022-10-19T01:21:33.039Z,69.65
2022-10-19T01:23:10.261Z,69.67
2022-10-19T01:24:19.015Z,69.87
2022-10-19T01:25:24.620Z,69.80
2022-10-19T01:26:41.218Z,69.85
2022-10-19T01:27:48.886Z,70.11
2022-10-19T01:29:22.499Z,70.51
2022-10-19T01:30:27.074Z,70.73
2022-10-19T01:31:28.483Z,70.84
2022-10-19T01:32:35.927Z,70.87
2022-10-19T01:33:46.591Z,70.95
2022-10-19T01:34:50.542Z,70.99
2022-10-19T01:35:51.976Z,70.94
2022-10-19T01:36:56.439Z,71.00
2022-10-19T01:37:57.875Z,71.06
2022-10-19T01:39:01.799Z,71.16
2022-10-19T01:40:17.841Z,71.20
2022-10-19T01:41:31.766Z,71.38
2022-10-19T01:42:38.865Z,71.29
2022-10-19T01:43:42.328Z,71.51
2022-10-19T01:44:50.642Z,71.62
2022-10-19T01:45:55.655Z,71.42
2022-10-19T01:46:58.163Z,71.44
2022-10-19T01:48:01.747Z,71.50
2022-10-19T01:49:05.063Z,71.37
2022-10-19T01:50:09.179Z,71.45
2022-10-19T01:51:21.161Z,71.44
2022-10-19T01:52:22.751Z,71.63
2022-10-19T01:53:24.494Z,71.38
2022-10-19T01:54:26.837Z,71.49
2022-10-19T01:55:28.266Z,71.58
2022-10-19T01:56:30.639Z,71.64
2022-10-19T01:57:33.095Z,71.51
2022-10-19T01:58:35.167Z,71.52
2022-10-19T01:59:36.671Z,71.61
2022-10-19T02:00:40.142Z,71.42
2022-10-19T02:01:43.257Z,71.56
2022-10-19T02:02:47.993Z,71.55
2022-10-19T02:03:49.454Z,71.56
2022-10-19T02:04:51.038Z,71.61
2022-10-19T02:05:52.503Z,71.61
2022-10-19T02:06:54.153Z,71.69
2022-10-19T02:07:56.366Z,71.72
2022-10-19T02:08:57.963Z,71.80
2022-10-19T02:09:59.461Z,71.82
2022-10-19T02:11:00.954Z,71.93
2022-10-19T02:12:03.682Z,71.95
2022-10-19T02:13:05.165Z,71.84
2022-10-19T02:14:09.235Z,71.84
2022-10-19T02:15:11.719Z,71.89
2022-10-19T02:16:14.515Z,72.03
2022-10-19T02:17:17.123Z,72.02
2022-10-19T02:18:20.167Z,72.31
2022-10-19T02:20:28.697Z,72.30
2022-10-19T02:21:30.126Z,72.45
2022-10-19T02:22:31.791Z,72.72
2022-10-19T02:23:34.061Z,72.78
2022-10-19T02:24:35.481Z,72.86
2022-10-19T02:25:36.938Z,72.72
2022-10-19T02:26:38.546Z,72.79
2022-10-19T02:27:41.858Z,72.83
2022-10-19T02:28:43.287Z,72.84
2022-10-19T02:29:44.736Z,72.94
2022-10-19T02:30:46.323Z,72.98
2022-10-19T02:31:47.767Z,72.78
2022-10-19T02:32:49.294Z,73.11
2022-10-19T02:33:50.842Z,72.89
2022-10-19T02:34:52.290Z,72.88
2022-10-19T02:35:53.830Z,73.03
2022-10-19T02:36:55.315Z,72.85
2022-10-19T02:37:57.991Z,72.82
2022-10-19T02:38:59.464Z,73.01
2022-10-19T02:40:01.207Z,73.11
2022-10-19T02:41:16.030Z,73.05
2022-10-19T02:42:18.640Z,73.43
2022-10-19T02:43:21.383Z,73.36
2022-10-19T02:44:23.803Z,73.27
2022-10-19T02:45:29.159Z,73.01
2022-10-19T02:47:47.000Z,72.99
2022-10-19T02:48:48.658Z,72.83
2022-10-19T02:49:50.619Z,72.93
2022-10-19T02:50:52.102Z,72.83
2022-10-19T02:51:56.411Z,72.75
2022-10-19T02:53:00.982Z,72.97
2022-10-19T02:54:05.150Z,73.07
2022-10-19T02:55:07.252Z,73.02
2022-10-19T02:56:09.088Z,72.93
2022-10-19T02:57:23.845Z,73.05
2022-10-19T02:58:25.273Z,73.27
2022-10-19T02:59:26.802Z,73.28
2022-10-19T03:00:28.223Z,73.61
2022-10-19T03:01:29.794Z,73.57
2022-10-19T03:02:31.391Z,73.53
2022-10-19T03:03:32.828Z,73.61
2022-10-19T03:04:34.457Z,73.68
2022-10-19T03:05:36.065Z,73.55
2022-10-19T03:06:37.486Z,73.55
2022-10-19T03:07:39.037Z,73.67
2022-10-19T03:08:40.451Z,73.47
2022-10-19T03:09:42.173Z,73.64
2022-10-19T03:10:43.687Z,73.48
2022-10-19T03:11:45.102Z,73.34
2022-10-19T03:12:46.588Z,73.45
2022-10-19T03:14:54.504Z,73.46
2022-10-19T03:15:55.983Z,73.39
2022-10-19T03:16:57.479Z,73.40
2022-10-19T03:17:58.974Z,73.32
2022-10-19T03:19:00.405Z,73.26
2022-10-19T03:20:01.867Z,73.28
2022-10-19T03:21:06.759Z,73.56
2022-10-19T03:22:08.174Z,73.45
2022-10-19T03:23:09.671Z,73.40
2022-10-19T03:24:11.091Z,73.42
2022-10-19T03:25:12.519Z,73.35
2022-10-19T03:26:14.665Z,73.19
2022-10-19T03:27:16.142Z,73.20
2022-10-19T03:28:17.620Z,73.26
2022-10-19T03:29:19.133Z,73.36
2022-10-19T03:30:20.546Z,73.18
2022-10-19T03:32:59.632Z,73.28
2022-10-19T03:34:02.082Z,73.37
2022-10-19T03:35:03.571Z,73.36
2022-10-19T03:36:19.332Z,73.30
2022-10-19T03:37:20.818Z,73.47
2022-10-19T03:38:22.246Z,73.40
2022-10-19T03:39:23.731Z,73.50
2022-10-19T03:40:25.167Z,73.54
2022-10-19T03:41:27.421Z,73.45
2022-10-19T03:42:28.931Z,73.51
2022-10-19T03:43:30.408Z,73.46
2022-10-19T03:44:31.953Z,73.52
2022-10-19T03:45:33.455Z,73.36
2022-10-19T03:46:35.513Z,73.28
2022-10-19T03:47:37.178Z,73.30
2022-10-19T03:48:38.768Z,73.16
2022-10-19T03:49:40.504Z,73.30
2022-10-19T03:50:41.995Z,73.30
2022-10-19T03:51:43.493Z,73.41
2022-10-19T03:52:44.975Z,73.35
2022-10-19T03:53:47.748Z,73.37
2022-10-19T03:54:52.092Z,73.32
2022-10-19T03:55:53.535Z,73.31
2022-10-19T03:56:54.975Z,73.32
2022-10-19T03:57:56.437Z,73.35
2022-10-19T03:58:58.350Z,73.40
2022-10-19T03:59:59.835Z,73.33
2022-10-19T04:01:01.487Z,73.63
2022-10-19T04:02:03.084Z,73.57
2022-10-19T04:03:04.550Z,73.66
2022-10-19T04:04:06.747Z,73.50
2022-10-19T04:05:08.302Z,73.51
2022-10-19T04:06:10.593Z,73.51
2022-10-19T04:07:12.075Z,73.47
2022-10-19T04:08:13.576Z,73.47
2022-10-19T04:09:15.874Z,73.33
2022-10-19T04:10:17.430Z,73.44
2022-10-19T04:11:20.549Z,73.36
2022-10-19T04:12:22.074Z,73.37
2022-10-19T04:13:23.536Z,73.36
2022-10-19T04:14:32.798Z,73.36
2022-10-19T04:15:34.907Z,73.34
2022-10-19T04:16:36.375Z,73.32
2022-10-19T04:17:38.099Z,73.30
2022-10-19T04:18:39.576Z,73.38
2022-10-19T04:19:41.268Z,73.24
2022-10-19T04:20:43.843Z,73.37
2022-10-19T04:21:47.144Z,73.27
2022-10-19T04:22:48.595Z,73.21
2022-10-19T04:23:50.571Z,73.25
2022-10-19T04:24:52.522Z,73.29
2022-10-19T04:25:59.247Z,73.20
2022-10-19T04:27:00.741Z,73.24
2022-10-19T04:28:02.373Z,73.13
2022-10-19T04:29:03.857Z,73.14
2022-10-19T04:30:05.596Z,73.12
2022-10-19T04:31:07.191Z,73.14
2022-10-19T04:32:08.620Z,73.07
2022-10-19T04:33:10.077Z,72.98
2022-10-19T04:34:11.621Z,72.91
2022-10-19T04:35:13.095Z,72.94
2022-10-19T04:36:14.583Z,72.94
2022-10-19T04:37:16.047Z,72.87
2022-10-19T04:38:17.518Z,72.91
2022-10-19T04:39:19.064Z,72.72
2022-10-19T04:40:20.512Z,72.87
2022-10-19T04:41:22.251Z,72.80
2022-10-19T04:42:23.733Z,72.77
2022-10-19T04:43:25.215Z,72.58
2022-10-19T04:44:26.785Z,72.61
2022-10-19T04:45:28.286Z,72.44
2022-10-19T04:46:29.887Z,72.42
2022-10-19T04:47:31.499Z,72.33
2022-10-19T04:48:33.712Z,72.36
2022-10-19T04:49:35.155Z,72.25
2022-10-19T04:50:36.642Z,72.58
2022-10-19T04:51:39.411Z,72.55
2022-10-19T04:52:40.856Z,72.55
2022-10-19T04:53:42.509Z,72.69
2022-10-19T04:54:43.963Z,72.47
2022-10-19T04:55:45.559Z,72.66
2022-10-19T04:56:47.091Z,72.57
2022-10-19T04:57:48.542Z,72.87
2022-10-19T04:58:50.011Z,72.81
2022-10-19T04:59:51.491Z,72.89
2022-10-19T05:00:53.065Z,72.85
2022-10-19T05:01:54.628Z,72.66
2022-10-19T05:02:56.130Z,72.65
2022-10-19T05:03:58.464Z,72.59
2022-10-19T05:04:59.992Z,72.53
2022-10-19T05:06:01.474Z,72.53
2022-10-19T05:07:02.931Z,72.48
2022-10-19T05:08:04.479Z,72.47
2022-10-19T05:09:05.923Z,72.41
2022-10-19T05:10:07.957Z,72.48
2022-10-19T05:11:13.159Z,72.47
2022-10-19T05:12:14.602Z,72.54
2022-10-19T05:13:16.068Z,72.48
2022-10-19T05:14:17.691Z,72.40
2022-10-19T05:15:19.207Z,72.36
2022-10-19T05:16:21.517Z,72.57
2022-10-19T05:17:22.974Z,72.57
2022-10-19T05:18:24.439Z,72.47
2022-10-19T05:19:25.895Z,72.53
2022-10-19T05:20:27.481Z,72.41
2022-10-19T05:21:29.258Z,72.64
2022-10-19T05:22:30.720Z,72.60
2022-10-19T05:24:38.698Z,72.63
2022-10-19T05:25:40.139Z,72.62
2022-10-19T05:26:41.598Z,72.48
2022-10-19T05:27:43.108Z,72.81
2022-10-19T05:28:51.265Z,72.70
2022-10-19T05:29:52.730Z,72.55
2022-10-19T05:30:54.254Z,72.63
2022-10-19T05:31:55.712Z,72.67
2022-10-19T05:32:57.197Z,72.67
2022-10-19T05:33:58.847Z,72.67
2022-10-19T05:35:00.365Z,72.76
2022-10-19T05:36:11.931Z,72.85
2022-10-19T05:37:13.391Z,72.85
2022-10-19T05:38:14.826Z,72.96
2022-10-19T05:39:16.711Z,73.02
2022-10-19T05:40:18.217Z,73.02
2022-10-19T05:41:19.920Z,72.98
2022-10-19T05:42:21.396Z,73.06
2022-10-19T05:43:22.904Z,73.11
2022-10-19T05:44:24.489Z,73.18
2022-10-19T05:45:26.092Z,73.09
2022-10-19T05:46:27.859Z,73.11
2022-10-19T05:47:31.117Z,73.11
2022-10-19T05:48:35.792Z,73.27
2022-10-19T05:49:37.286Z,73.23
2022-10-19T05:50:38.768Z,73.13
2022-10-19T05:51:40.247Z,73.50
2022-10-19T05:52:41.754Z,73.33
2022-10-19T05:53:43.346Z,73.35
2022-10-19T05:54:44.822Z,73.29
2022-10-19T05:55:46.333Z,73.31
2022-10-19T05:56:47.797Z,73.29
2022-10-19T05:57:49.228Z,73.29
2022-10-19T05:58:50.879Z,73.30
2022-10-19T05:59:52.448Z,73.21
2022-10-19T06:00:54.431Z,73.08
2022-10-19T06:01:56.000Z,73.24
2022-10-19T06:02:59.176Z,73.11
2022-10-19T06:04:01.054Z,73.18
2022-10-19T06:05:02.697Z,73.14
2022-10-19T06:06:04.960Z,73.17
2022-10-19T06:07:06.460Z,73.08
2022-10-19T06:08:08.067Z,73.01
2022-10-19T06:09:09.635Z,73.12
2022-10-19T06:10:11.223Z,73.10
2022-10-19T06:11:13.630Z,73.16
2022-10-19T06:12:16.342Z,72.92
2022-10-19T06:13:18.402Z,72.97
2022-10-19T06:14:19.872Z,73.13
2022-10-19T06:15:21.340Z,73.07
2022-10-19T06:16:23.990Z,73.00
2022-10-19T06:17:27.847Z,72.77
2022-10-19T06:18:29.603Z,73.04
2022-10-19T06:19:31.066Z,72.89
2022-10-19T06:20:34.150Z,72.89
2022-10-19T06:21:35.660Z,72.89
2022-10-19T06:22:37.127Z,72.83
2022-10-19T06:23:38.668Z,72.79
2022-10-19T06:24:40.222Z,72.82
2022-10-19T06:25:41.870Z,72.93
2022-10-19T06:26:43.339Z,72.76
2022-10-19T06:27:45.082Z,72.82
2022-10-19T06:28:46.669Z,72.97
2022-10-19T06:29:48.379Z,72.98
2022-10-19T06:30:49.988Z,72.96
2022-10-19T06:31:52.099Z,72.89
2022-10-19T06:32:53.620Z,72.81
2022-10-19T06:33:55.973Z,72.76
2022-10-19T06:34:57.636Z,72.58
2022-10-19T06:36:24.901Z,72.53
2022-10-19T06:37:26.423Z,72.60
2022-10-19T06:38:27.928Z,72.70
2022-10-19T06:39:29.362Z,72.52
2022-10-19T06:40:30.921Z,72.49
2022-10-19T06:41:32.455Z,72.56
2022-10-19T06:42:50.119Z,72.42
2022-10-19T06:43:51.946Z,72.45
2022-10-19T06:44:53.410Z,72.36
2022-10-19T06:45:54.935Z,72.33
2022-10-19T06:46:56.412Z,72.28
2022-10-19T06:48:02.226Z,72.32
2022-10-19T06:49:06.583Z,72.35
2022-10-19T06:50:08.127Z,72.25
2022-10-19T06:51:09.632Z,72.33
2022-10-19T06:52:11.106Z,72.21
2022-10-19T06:53:12.601Z,72.24
2022-10-19T06:54:14.129Z,72.21
2022-10-19T06:55:17.090Z,72.29
2022-10-19T06:56:19.032Z,72.13
2022-10-19T06:57:20.540Z,72.25
2022-10-19T06:58:22.013Z,72.15
2022-10-19T06:59:23.620Z,72.07
2022-10-19T07:00:25.075Z,72.11
2022-10-19T07:01:26.663Z,72.13
2022-10-19T07:02:28.163Z,72.24
2022-10-19T07:03:29.779Z,72.07
2022-10-19T07:04:31.308Z,72.02
2022-10-19T07:05:32.768Z,72.00
2022-10-19T07:06:34.237Z,72.02
2022-10-19T07:07:36.155Z,71.89
2022-10-19T07:08:38.199Z,71.79
2022-10-19T07:09:39.719Z,72.09
2022-10-19T07:10:41.183Z,71.98
2022-10-19T07:11:46.092Z,71.99
2022-10-19T07:12:47.970Z,71.95
2022-10-19T07:13:49.432Z,72.05
2022-10-19T07:14:51.178Z,71.80
2022-10-19T07:15:58.613Z,71.75
2022-10-19T07:17:00.102Z,71.62
2022-10-19T07:18:01.570Z,71.56
2022-10-19T07:19:03.040Z,71.63
2022-10-19T07:20:04.744Z,71.41
2022-10-19T07:21:07.114Z,71.41
2022-10-19T07:22:08.601Z,71.36
2022-10-19T07:23:10.081Z,71.36
2022-10-19T07:24:11.543Z,71.24
2022-10-19T07:25:13.088Z,71.26
2022-10-19T07:26:23.280Z,71.13
2022-10-19T07:27:24.754Z,70.97
2022-10-19T07:28:26.366Z,71.14
2022-10-19T07:29:27.840Z,70.83
2022-10-19T07:30:29.271Z,70.68
2022-10-19T07:31:31.276Z,70.96
2022-10-19T07:32:32.803Z,70.96
2022-10-19T07:33:34.271Z,71.01
2022-10-19T07:34:35.751Z,71.13
2022-10-19T07:35:37.226Z,70.89
2022-10-19T07:36:39.703Z,70.90
2022-10-19T07:37:41.294Z,71.00
2022-10-19T07:38:42.755Z,71.04
2022-10-19T07:39:44.232Z,70.97
2022-10-19T07:40:47.474Z,70.96
2022-10-19T07:41:49.208Z,71.10
2022-10-19T07:42:50.678Z,70.90
2022-10-19T07:43:52.458Z,70.82
2022-10-19T07:44:53.926Z,70.88
2022-10-19T07:46:02.062Z,71.01
2022-10-19T07:47:04.782Z,70.96
2022-10-19T07:48:06.337Z,70.87
2022-10-19T07:49:09.821Z,70.81
2022-10-19T07:50:11.271Z,70.82
2022-10-19T07:51:13.340Z,70.71
2022-10-19T07:52:14.947Z,70.66
2022-10-19T07:53:16.558Z,70.50
2022-10-19T07:54:18.052Z,70.35
2022-10-19T07:55:19.847Z,70.33
2022-10-19T07:56:22.443Z,70.37
2022-10-19T07:57:23.876Z,70.35
2022-10-19T07:58:25.344Z,70.41
2022-10-19T07:59:26.824Z,70.47
2022-10-19T08:00:28.494Z,70.44
2022-10-19T08:01:30.883Z,70.61
2022-10-19T08:02:39.679Z,70.38
2022-10-19T08:05:16.100Z,70.73
2022-10-19T08:06:19.089Z,70.49
2022-10-19T08:07:20.615Z,70.32
2022-10-19T08:08:22.064Z,70.52
2022-10-19T08:09:51.020Z,70.42
2022-10-19T08:10:45.145Z,70.59
2022-10-19T08:11:46.599Z,70.61
2022-10-19T08:12:48.062Z,70.77
2022-10-19T08:13:49.542Z,70.57
2022-10-19T08:14:51.043Z,70.78
2022-10-19T08:15:52.585Z,70.83
2022-10-19T08:16:54.022Z,70.72
2022-10-19T08:17:55.548Z,70.92
2022-10-19T08:18:57.768Z,70.81
2022-10-19T08:19:59.257Z,70.78
2022-10-19T08:21:01.896Z,70.92
2022-10-19T08:22:03.366Z,70.88
2022-10-19T08:23:05.057Z,70.69
2022-10-19T08:24:06.650Z,70.83
2022-10-19T08:25:08.290Z,70.45
2022-10-19T08:26:09.767Z,70.67
2022-10-19T08:27:11.404Z,70.74
2022-10-19T08:28:12.864Z,70.72
2022-10-19T08:29:15.022Z,70.65
2022-10-19T08:30:16.548Z,70.43
2022-10-19T08:31:18.987Z,70.43
2022-10-19T08:32:20.677Z,70.40
2022-10-19T08:33:22.218Z,70.10
2022-10-19T08:34:23.935Z,70.25
2022-10-19T08:35:25.410Z,70.48
2022-10-19T08:36:27.585Z,70.69
2022-10-19T08:37:40.696Z,70.60
2022-10-19T08:38:48.364Z,70.77
2022-10-19T08:39:49.856Z,70.70
2022-10-19T08:40:51.437Z,70.65
2022-10-19T08:41:57.799Z,70.57
2022-10-19T08:43:20.300Z,70.35
2022-10-19T08:44:40.386Z,70.29
2022-10-19T08:45:44.965Z,70.36
2022-10-19T08:47:07.713Z,70.15
2022-10-19T08:48:15.212Z,70.04
2022-10-19T08:49:19.098Z,70.15
2022-10-19T08:50:21.894Z,69.86
2022-10-19T08:51:23.468Z,69.59
2022-10-19T08:52:29.618Z,69.64
2022-10-19T08:53:39.506Z,69.74
2022-10-19T08:54:42.972Z,69.69
2022-10-19T08:56:05.407Z,69.77
2022-10-19T08:57:06.999Z,69.69
2022-10-19T08:58:14.784Z,69.70
2022-10-19T08:59:19.521Z,69.42
2022-10-19T09:00:24.155Z,69.51
2022-10-19T09:01:46.878Z,69.37
2022-10-19T09:03:07.518Z,69.38
2022-10-19T09:04:28.817Z,69.41
2022-10-19T09:05:40.476Z,69.35
2022-10-19T09:06:43.364Z,69.45
2022-10-19T09:07:46.003Z,69.51
2022-10-19T09:08:47.544Z,69.70
2022-10-19T09:09:50.254Z,69.68
2022-10-19T09:10:52.002Z,69.68
2022-10-19T09:11:54.995Z,69.63
2022-10-19T09:13:00.560Z,69.58
2022-10-19T09:14:06.292Z,69.58
2022-10-19T09:15:11.020Z,69.60
2022-10-19T09:16:13.170Z,69.43
2022-10-19T09:17:14.863Z,69.42
2022-10-19T09:18:23.859Z,69.67
2022-10-19T09:19:26.249Z,69.61
2022-10-19T09:20:35.513Z,69.38
2022-10-19T09:21:54.455Z,69.27
2022-10-19T09:23:13.162Z,69.28
2022-10-19T09:24:24.054Z,69.47
2022-10-19T09:25:25.539Z,69.56
2022-10-19T09:26:31.281Z,69.59
2022-10-19T09:27:34.875Z,69.75
2022-10-19T09:28:55.664Z,69.62
2022-10-19T09:29:57.891Z,69.71
2022-10-19T09:30:59.416Z,69.61
2022-10-19T09:32:01.343Z,69.72
2022-10-19T09:33:02.911Z,69.77
2022-10-19T09:34:24.599Z,69.80
2022-10-19T09:35:38.916Z,69.71
2022-10-19T09:36:54.300Z,69.63
2022-10-19T09:37:55.956Z,69.50
2022-10-19T09:38:57.456Z,69.32
2022-10-19T09:39:59.003Z,69.38
2022-10-19T09:41:19.489Z,69.48
2022-10-19T09:42:22.685Z,69.58
2022-10-19T09:43:25.331Z,69.31
2022-10-19T09:44:27.916Z,69.42
2022-10-19T09:45:34.470Z,69.37
2022-10-19T09:46:38.995Z,69.27
2022-10-19T09:47:40.953Z,69.21
2022-10-19T09:48:44.853Z,69.05
2022-10-19T09:49:47.218Z,69.23
2022-10-19T09:50:51.373Z,68.94
2022-10-19T09:51:52.948Z,68.83
2022-10-19T09:52:55.498Z,68.83
2022-10-19T09:53:57.011Z,68.89
2022-10-19T09:55:01.764Z,68.95
2022-10-19T09:56:04.285Z,68.89
2022-10-19T09:57:05.769Z,68.80
2022-10-19T09:58:13.438Z,68.68
2022-10-19T09:59:20.731Z,68.68
2022-10-19T10:00:25.602Z,68.79
2022-10-19T10:01:41.822Z,68.84
2022-10-19T10:02:48.375Z,69.11
2022-10-19T10:03:52.502Z,68.98
2022-10-19T10:05:06.963Z,69.19
2022-10-19T10:06:09.559Z,69.24
2022-10-19T10:07:17.490Z,69.31
2022-10-19T10:08:19.970Z,69.30
2022-10-19T10:09:22.550Z,69.27
2022-10-19T10:10:30.465Z,69.28
2022-10-19T10:11:38.173Z,69.32
2022-10-19T10:12:39.735Z,69.18
2022-10-19T10:13:42.836Z,69.14
2022-10-19T10:14:44.355Z,69.10
2022-10-19T10:15:49.326Z,68.96
2022-10-19T10:16:57.502Z,68.99
2022-10-19T10:17:58.939Z,69.00
2022-10-19T10:19:01.015Z,69.13
2022-10-19T10:20:05.192Z,68.96
2022-10-19T10:21:13.746Z,68.97
2022-10-19T10:22:28.630Z,68.90
2022-10-19T10:23:31.891Z,68.78
2022-10-19T10:24:33.480Z,68.71
2022-10-19T10:25:36.189Z,68.66
2022-10-19T10:26:38.696Z,68.64
2022-10-19T10:27:40.367Z,68.83
2022-10-19T10:28:48.362Z,69.02
2022-10-19T10:29:54.172Z,68.93
2022-10-19T10:30:59.514Z,68.94
2022-10-19T10:32:03.807Z,69.11
2022-10-19T10:33:15.782Z,69.21
2022-10-19T10:34:37.954Z,69.32
2022-10-19T10:35:49.853Z,69.49
2022-10-19T10:36:51.448Z,69.35
2022-10-19T10:37:52.934Z,69.31
2022-10-19T10:38:56.574Z,69.20
2022-10-19T10:40:00.552Z,69.17
2022-10-19T10:41:08.264Z,69.17
2022-10-19T10:42:10.520Z,69.07
2022-10-19T10:43:15.954Z,69.19
2022-10-19T10:44:18.959Z,69.14
2022-10-19T10:45:22.883Z,69.14
2022-10-19T10:46:28.392Z,69.19
2022-10-19T10:47:29.987Z,69.26
2022-10-19T10:48:31.470Z,69.17
2022-10-19T10:49:34.187Z,69.43
2022-10-19T10:50:35.696Z,69.26
2022-10-19T10:51:37.104Z,69.29
2022-10-19T10:52:56.234Z,69.33
2022-10-19T10:54:09.035Z,69.21
2022-10-19T10:55:10.472Z,69.25
2022-10-19T10:56:25.326Z,69.43
2022-10-19T10:57:28.290Z,69.23
2022-10-19T10:58:37.798Z,69.17
2022-10-19T10:59:45.468Z,69.24
2022-10-19T11:00:47.918Z,68.93
2022-10-19T11:01:54.667Z,69.11
2022-10-19T11:03:16.313Z,69.12
2022-10-19T11:04:19.814Z,69.08
2022-10-19T11:05:50.501Z,69.11
2022-10-19T11:06:53.318Z,69.08
2022-10-19T11:07:57.310Z,69.08
2022-10-19T11:09:01.084Z,69.13
2022-10-19T11:10:06.808Z,69.21
2022-10-19T11:11:14.987Z,69.18
2022-10-19T11:12:16.556Z,68.97
2022-10-19T11:13:20.650Z,68.87
2022-10-19T11:14:39.214Z,68.99
2022-10-19T11:15:53.759Z,68.99
2022-10-19T11:16:55.361Z,68.95
2022-10-19T11:17:59.125Z,68.71
2022-10-19T11:19:00.575Z,68.78
2022-10-19T11:20:02.093Z,68.70
2022-10-19T11:21:22.175Z,68.74
2022-10-19T11:22:28.304Z,68.72
2022-10-19T11:23:36.126Z,68.76
2022-10-19T11:24:46.369Z,68.81
2022-10-19T11:25:54.092Z,68.93
2022-10-19T11:26:55.759Z,68.77
2022-10-19T11:28:15.215Z,68.82
2022-10-19T11:29:23.671Z,68.68
2022-10-19T11:30:25.128Z,68.43
2022-10-19T11:31:32.464Z,68.52
2022-10-19T11:32:47.819Z,68.65
2022-10-19T11:34:01.111Z,68.95
2022-10-19T11:35:09.196Z,68.92
2022-10-19T11:36:13.182Z,69.01
2022-10-19T11:37:23.819Z,68.95
2022-10-19T11:38:43.957Z,68.81
2022-10-19T11:39:48.463Z,68.67
2022-10-19T11:41:16.799Z,68.49
2022-10-19T11:42:20.839Z,68.54
2022-10-19T11:43:27.011Z,68.46
2022-10-19T11:44:44.335Z,68.50
2022-10-19T11:46:04.619Z,68.80
2022-10-19T11:47:08.869Z,68.73
2022-10-19T11:48:19.283Z,68.81
2022-10-19T11:49:28.146Z,68.50
2022-10-19T11:50:32.452Z,68.38
2022-10-19T11:51:36.495Z,68.32
2022-10-19T11:52:41.128Z,68.20
2022-10-19T11:53:48.726Z,68.07
2022-10-19T11:55:02.195Z,68.11
2022-10-19T11:56:09.054Z,67.82
2022-10-19T11:57:16.667Z,67.92
2022-10-19T11:58:21.071Z,68.04
2022-10-19T11:59:22.539Z,68.43
2022-10-19T12:00:40.039Z,68.39
2022-10-19T12:02:00.561Z,68.33
2022-10-19T12:03:20.897Z,68.43
2022-10-19T12:04:28.683Z,68.31
2022-10-19T12:05:33.166Z,68.06
2022-10-19T12:06:53.632Z,67.98
2022-10-19T12:07:57.964Z,67.87
2022-10-19T12:09:21.238Z,67.76
2022-10-19T12:10:40.875Z,68.05
2022-10-19T12:11:51.614Z,68.00
2022-10-19T12:12:53.857Z,67.89
2022-10-19T12:14:03.240Z,67.84
2022-10-19T12:15:40.050Z,67.86
2022-10-19T12:16:45.430Z,67.83
2022-10-19T12:17:47.836Z,67.60
2022-10-19T12:18:53.467Z,67.72
2022-10-19T12:19:56.255Z,67.66
2022-10-19T12:20:58.825Z,67.65
2022-10-19T12:22:01.571Z,67.86
2022-10-19T12:23:06.335Z,67.83
2022-10-19T12:24:11.148Z,67.61
2022-10-19T12:25:12.944Z,67.29
2022-10-19T12:26:15.343Z,67.40
2022-10-19T12:27:17.355Z,67.58
2022-10-19T12:28:21.010Z,67.50
2022-10-19T12:29:29.543Z,67.58
2022-10-19T12:30:31.020Z,67.49
2022-10-19T12:31:32.472Z,67.53
2022-10-19T12:32:54.531Z,67.47
2022-10-19T12:33:58.570Z,67.22
2022-10-19T12:35:29.378Z,67.31
2022-10-19T12:36:36.835Z,67.51
2022-10-19T12:37:41.200Z,67.30
2022-10-19T12:39:00.048Z,67.12
2022-10-19T12:40:19.411Z,67.29
2022-10-19T12:41:43.267Z,67.52
2022-10-19T12:43:01.287Z,67.59
2022-10-19T12:44:11.845Z,67.71
2022-10-19T12:45:18.219Z,67.80
2022-10-19T12:46:25.420Z,67.58
2022-10-19T12:47:26.852Z,67.57
2022-10-19T12:48:28.323Z,67.69
2022-10-19T12:49:29.741Z,67.69
2022-10-19T12:50:49.595Z,67.76
2022-10-19T12:51:52.157Z,67.45
2022-10-19T12:52:54.688Z,67.42
2022-10-19T12:54:06.856Z,67.54
2022-10-19T12:55:11.175Z,67.51
2022-10-19T12:56:19.903Z,67.31
2022-10-19T12:57:23.515Z,67.36
2022-10-19T12:58:25.000Z,67.33
2022-10-19T12:59:27.716Z,67.31
2022-10-19T13:00:30.821Z,67.33
2022-10-19T13:01:35.072Z,67.28
2022-10-19T13:02:36.813Z,67.44
2022-10-19T13:03:38.892Z,67.49
2022-10-19T13:04:40.314Z,67.51
2022-10-19T13:05:41.792Z,67.55
2022-10-19T13:06:43.220Z,67.72
2022-10-19T13:07:44.742Z,67.57
2022-10-19T13:08:47.754Z,67.56
2022-10-19T13:09:49.562Z,67.56
2022-10-19T13:11:07.206Z,67.50
2022-10-19T13:12:17.759Z,67.20
2022-10-19T13:13:50.943Z,67.38
2022-10-19T13:14:53.162Z,67.40
2022-10-19T13:15:54.639Z,67.65
2022-10-19T13:16:59.955Z,67.44
2022-10-19T13:18:04.630Z,67.47
2022-10-19T13:19:11.950Z,67.47
2022-10-19T13:20:13.403Z,67.25
2022-10-19T13:21:34.917Z,67.39
2022-10-19T13:22:36.701Z,67.18
2022-10-19T13:23:38.795Z,66.93
2022-10-19T13:25:43.071Z,67.18
2022-10-19T13:26:45.150Z,66.87
2022-10-19T13:28:09.948Z,66.96
2022-10-19T13:29:26.881Z,66.91
2022-10-19T13:30:46.539Z,66.53
2022-10-19T13:31:48.040Z,66.72
2022-10-19T13:32:49.772Z,66.92
2022-10-19T13:33:51.241Z,66.65
2022-10-19T13:34:52.682Z,66.62
2022-10-19T13:35:59.766Z,66.38
2022-10-19T13:37:02.047Z,66.45
2022-10-19T13:38:09.127Z,66.69
2022-10-19T13:39:13.471Z,66.30
2022-10-19T13:40:23.567Z,66.57
2022-10-19T13:41:27.191Z,65.77
2022-10-19T13:42:28.627Z,65.77
2022-10-19T13:43:53.376Z,65.82
2022-10-19T13:44:55.947Z,65.94
2022-10-19T13:46:01.435Z,65.57
2022-10-19T13:47:05.547Z,65.71
2022-10-19T13:48:11.236Z,65.46
2022-10-19T13:49:19.809Z,65.52
2022-10-19T13:50:31.696Z,65.70
2022-10-19T13:51:35.979Z,65.81
2022-10-19T13:52:40.451Z,65.73
2022-10-19T13:54:08.506Z,65.80
2022-10-19T13:55:23.348Z,65.54
2022-10-19T13:56:27.732Z,65.86
2022-10-19T13:57:44.496Z,65.90
2022-10-19T13:59:12.442Z,65.85
2022-10-19T14:00:16.860Z,65.68